Time;durP1;ratioP1;P1;durP2;ratioP2;P2;SDS_P1;SDS_P2;PMS_P1;PMS_P2;Temp;Humidity;BMP_temperature;BMP_pressure;BME280_temperature;BME280_humidity;BME280_pressure;Samples;Min_cycle;Max_cycle;Signal;HPM_P1;HPM_P2
2022/02/12 00:02:03;;;;;;;;;16.00;14.80;;;;;8.56;48.70;99899.69;6241538;27;97592;-70
2022/02/12 00:05:07;;;;;;;;;20.25;18.00;;;;;8.64;48.94;99901.47;6265011;27;97237;-70
2022/02/12 00:08:10;;;;;;;;;20.00;18.00;;;;;8.71;48.79;99905.06;6238097;28;98354;-71
2022/02/12 00:11:13;;;;;;;;;22.00;19.60;;;;;8.57;49.17;99900.53;6250023;27;98227;-70
2022/02/12 00:14:17;;;;;;;;;21.75;20.75;;;;;8.56;49.42;99905.06;6235015;27;98340;-72
2022/02/12 00:17:21;;;;;;;;;20.75;18.00;;;;;8.53;49.46;99902.75;6239435;28;97692;-70
2022/02/12 00:20:25;;;;;;;;;22.00;20.00;;;;;8.58;49.44;99908.41;6223410;27;98411;-70
2022/02/12 00:23:28;;;;;;;;;25.00;20.25;;;;;8.58;49.33;99913.78;6228642;28;96886;-71
2022/02/12 00:26:34;;;;;;;;;20.00;19.00;;;;;8.57;49.46;99913.97;6221603;28;98025;-70
2022/02/12 00:29:38;;;;;;;;;23.40;18.60;;;;;8.50;49.38;99918.41;6240482;28;97164;-70
2022/02/12 00:32:46;;;;;;;;;22.00;21.00;;;;;8.53;49.27;99918.88;6244747;27;98178;-70
2022/02/12 00:35:49;;;;;;;;;22.25;21.00;;;;;8.64;49.07;99926.50;6262076;27;96559;-70
2022/02/12 00:38:52;;;;;;;;;21.00;20.00;;;;;8.61;48.87;99929.53;6258538;27;97546;-71
2022/02/12 00:41:56;;;;;;;;;21.00;20.00;;;;;8.70;48.82;99939.19;6243354;27;97883;-70
2022/02/12 00:45:00;;;;;;;;;23.60;20.00;;;;;8.62;49.01;99935.75;6257032;27;98282;-70
2022/02/12 00:48:05;;;;;;;;;23.25;20.25;;;;;8.73;48.78;99942.53;6236448;28;96907;-72
2022/02/12 00:51:09;;;;;;;;;20.60;19.60;;;;;8.82;48.72;99944.94;6241420;27;97396;-72
2022/02/12 00:54:12;;;;;;;;;20.00;18.00;;;;;8.82;48.44;99946.81;6265548;27;96406;-72
2022/02/12 00:57:15;;;;;;;;;21.20;18.00;;;;;8.92;48.15;99950.91;6258044;27;96819;-71
2022/02/12 01:00:19;;;;;;;;;20.20;20.00;;;;;9.01;48.17;99947.09;6263933;27;96380;-71
2022/02/12 01:03:23;;;;;;;;;21.00;19.50;;;;;8.91;48.16;99951.06;6265047;27;96539;-71
2022/02/12 01:06:27;;;;;;;;;21.80;19.20;;;;;8.88;48.24;99956.81;6247980;27;96464;-71
2022/02/12 01:09:31;;;;;;;;;23.20;20.60;;;;;8.97;48.13;99951.16;6248967;27;97456;-71
2022/02/12 01:12:35;;;;;;;;;22.00;19.00;;;;;8.96;48.06;99956.72;6214713;27;96967;-70
2022/02/12 01:15:38;;;;;;;;;21.00;19.20;;;;;8.86;47.87;99940.03;6256200;27;97084;-70
2022/02/12 01:18:43;;;;;;;;;20.40;18.00;;;;;8.94;47.97;99964.97;6254876;27;96638;-70
2022/02/12 01:21:46;;;;;;;;;20.00;17.80;;;;;8.82;48.40;99961.09;6238776;28;98055;-71
2022/02/12 01:24:50;;;;;;;;;22.00;20.00;;;;;8.82;48.32;99963.78;6238894;28;97530;-71
2022/02/12 01:27:54;;;;;;;;;20.20;18.20;;;;;8.78;48.36;99954.41;6238872;28;96372;-72
2022/02/12 01:30:57;;;;;;;;;19.00;16.00;;;;;8.89;48.44;99961.19;6242566;27;96973;-70
2022/02/12 01:34:02;;;;;;;;;18.00;17.00;;;;;8.73;48.60;99942.53;6246814;27;96630;-70
2022/02/12 01:37:07;;;;;;;;;18.00;17.00;;;;;8.90;48.50;99962.84;6261680;27;97479;-71
2022/02/12 01:40:12;;;;;;;;;20.00;18.00;;;;;8.86;48.60;99972.31;6206349;27;96705;-72
2022/02/12 01:43:17;;;;;;;;;19.00;18.20;;;;;8.78;49.17;99973.22;6263719;27;96869;-71
2022/02/12 01:46:20;;;;;;;;;21.25;18.75;;;;;8.78;48.73;99959.78;6245358;27;97926;-71
2022/02/12 01:49:25;;;;;;;;;21.00;19.00;;;;;8.91;48.56;99977.97;6234982;27;96993;-70
2022/02/12 01:52:31;;;;;;;;;20.20;19.00;;;;;8.86;48.40;99975.00;6263132;27;97799;-72
2022/02/12 01:55:34;;;;;;;;;22.00;21.00;;;;;8.93;48.32;99973.25;6263298;27;96430;-72
2022/02/12 01:58:38;;;;;;;;;22.50;20.00;;;;;8.93;48.31;99973.25;6265009;27;96930;-71
2022/02/12 02:01:42;;;;;;;;;19.00;17.80;;;;;8.83;48.54;99972.69;6242242;27;97605;-72
2022/02/12 02:04:46;;;;;;;;;22.00;19.75;;;;;8.72;48.57;99976.66;6221499;28;98174;-70
2022/02/12 02:07:49;;;;;;;;;23.00;20.00;;;;;8.81;48.50;99972.84;6202609;28;98217;-71
2022/02/12 02:10:54;;;;;;;;;21.40;19.00;;;;;8.83;48.29;99978.06;6218662;28;99408;-70
2022/02/12 02:13:57;;;;;;;;;22.60;20.00;;;;;8.92;48.12;99988.53;6253829;27;96796;-71
2022/02/12 02:17:01;;;;;;;;;19.00;17.60;;;;;9.03;47.91;99992.63;6232495;28;97827;-70
2022/02/12 02:20:07;;;;;;;;;19.00;18.00;;;;;9.01;47.83;100000.03;6230906;27;98387;-70
2022/02/12 02:23:12;;;;;;;;;20.00;18.00;;;;;9.10;47.72;99991.69;6204599;27;97180;-70
2022/02/12 02:26:15;;;;;;;;;17.60;16.60;;;;;9.13;47.47;99999.41;6263091;27;96970;-71
2022/02/12 02:29:19;;;;;;;;;17.60;17.00;;;;;9.09;47.54;100000.78;6264021;27;97146;-72
2022/02/12 02:32:23;;;;;;;;;18.40;17.20;;;;;9.15;47.50;100007.28;6263534;27;96743;-72
2022/02/12 02:35:26;;;;;;;;;19.60;18.00;;;;;9.09;47.67;100008.84;6246510;27;96608;-72
2022/02/12 02:38:31;;;;;;;;;15.00;15.00;;;;;9.12;47.92;100021.13;6245655;27;97939;-71
2022/02/12 02:41:34;;;;;;;;;17.40;16.40;;;;;9.14;47.92;100027.97;6220404;28;96831;-72
2022/02/12 02:44:38;;;;;;;;;18.00;16.60;;;;;9.11;48.24;100033.72;6241930;27;97085;-72
2022/02/12 02:47:42;;;;;;;;;20.00;18.00;;;;;9.03;48.79;100036.53;6244284;27;98869;-72
2022/02/12 02:57:30;;;;;;;;;22.00;19.00;;;;;8.90;49.71;100067.72;6219401;28;99085;-70
2022/02/12 03:00:34;;;;;;;;;22.00;20.60;;;;;8.90;50.12;100073.09;6235909;28;96929;-71
2022/02/12 03:03:41;;;;;;;;;24.00;22.00;;;;;8.62;50.48;100054.03;6238101;27;97003;-70
2022/02/12 03:06:44;;;;;;;;;24.50;19.00;;;;;8.66;50.52;100050.78;6235762;28;96571;-70
2022/02/12 03:09:49;;;;;;;;;24.40;21.40;;;;;8.85;50.55;100080.88;6238115;28;97945;-71
2022/02/12 03:12:52;;;;;;;;;21.00;19.25;;;;;8.85;50.61;100086.25;6234820;28;99570;-71
2022/02/12 03:15:55;;;;;;;;;21.50;19.00;;;;;9.00;50.33;100093.34;6220063;28;97445;-70
2022/02/12 03:18:59;;;;;;;;;22.33;20.33;;;;;9.05;50.16;100101.72;6215665;27;97162;-71
2022/02/12 03:22:02;;;;;;;;;21.00;18.80;;;;;9.12;49.96;100105.34;6212875;28;96667;-71
2022/02/12 03:25:08;;;;;;;;;24.00;22.00;;;;;9.13;49.85;100114.28;6219430;28;97383;-72
2022/02/12 03:28:12;;;;;;;;;23.60;22.60;;;;;9.11;49.96;100116.28;6225642;28;97476;-70
2022/02/12 03:31:15;;;;;;;;;23.00;21.75;;;;;9.13;49.97;100114.28;6236362;28;96316;-70
2022/02/12 03:34:18;;;;;;;;;22.00;19.00;;;;;9.09;50.17;100121.84;6236311;28;98340;-70
2022/02/12 03:37:26;;;;;;;;;24.00;20.00;;;;;9.06;50.05;100122.22;6238872;27;96486;-71
2022/02/12 03:40:30;;;;;;;;;22.80;21.80;;;;;9.08;50.05;100133.66;6231470;28;97473;-71
2022/02/12 03:43:36;;;;;;;;;21.40;19.80;;;;;9.12;49.55;100131.44;6226336;28;96436;-70
2022/02/12 03:46:40;;;;;;;;;21.75;19.00;;;;;9.19;49.14;100139.63;6231127;28;97451;-70
2022/02/12 03:49:44;;;;;;;;;19.00;17.00;;;;;9.11;49.01;100137.81;6223444;28;97592;-72
2022/02/12 03:52:49;;;;;;;;;20.00;18.00;;;;;8.99;49.23;100152.72;6235995;28;96414;-70
2022/02/12 03:55:54;;;;;;;;;13.50;13.25;;;;;8.93;49.08;100148.91;6218936;28;97059;-71
2022/02/12 03:58:58;;;;;;;;;16.00;15.25;;;;;8.77;49.71;100159.78;6222579;28;96837;-71
2022/02/12 04:02:03;;;;;;;;;15.60;15.60;;;;;8.70;49.86;100165.03;6235722;28;97583;-70
2022/02/12 04:05:07;;;;;;;;;16.00;15.00;;;;;8.66;49.96;100168.25;6240502;27;97144;-71
2022/02/12 04:08:10;;;;;;;;;16.00;15.60;;;;;8.65;49.66;100164.72;6216948;28;98112;-70
2022/02/12 04:11:15;;;;;;;;;17.00;16.00;;;;;8.60;49.42;100171.69;6235215;28;97454;-72
2022/02/12 04:14:18;;;;;;;;;16.00;15.00;;;;;8.67;48.87;100178.84;6218201;27;98640;-70
2022/02/12 04:17:21;;;;;;;;;14.00;12.80;;;;;8.53;48.23;100182.28;6221504;27;96816;-70
2022/02/12 04:20:26;;;;;;;;;12.80;12.80;;;;;8.58;48.32;100182.59;6265844;27;97461;-71
2022/02/12 04:23:30;;;;;;;;;14.00;13.20;;;;;8.59;48.23;100189.66;6223809;28;97097;-72
2022/02/12 04:26:35;;;;;;;;;14.40;13.40;;;;;8.54;47.83;100196.56;6221497;28;99548;-70
2022/02/12 04:29:38;;;;;;;;;11.00;11.00;;;;;8.52;47.17;100206.66;6229318;27;97064;-71
2022/02/12 04:32:43;;;;;;;;;13.60;12.60;;;;;8.45;46.58;100206.53;6239578;27;96557;-71
2022/02/12 04:35:48;;;;;;;;;12.25;11.00;;;;;8.37;45.08;100213.78;6240970;28;96261;-71
2022/02/12 04:38:52;;;;;;;;;12.40;11.40;;;;;8.31;44.95;100220.69;6240437;28;96475;-70
2022/02/12 04:41:56;;;;;;;;;9.00;9.00;;;;;8.32;44.49;100224.22;6204992;28;100031;-70
2022/02/12 04:45:00;;;;;;;;;8.25;8.25;;;;;8.18;43.68;100231.13;6263411;27;97427;-71
2022/02/12 04:48:03;;;;;;;;;10.00;9.00;;;;;8.20;43.75;100246.06;6234662;27;98423;-72
2022/02/12 04:51:07;;;;;;;;;9.00;8.20;;;;;8.14;43.71;100253.97;6240205;28;97468;-71
2022/02/12 04:54:10;;;;;;;;;9.80;9.80;;;;;8.08;43.96;100254.66;6240376;27;97474;-70
2022/02/12 04:57:15;;;;;;;;;10.00;10.00;;;;;7.96;43.81;100256.06;6240597;28;96469;-71
2022/02/12 05:00:19;;;;;;;;;9.25;9.00;;;;;7.92;43.72;100265.44;6221810;27;97265;-70
2022/02/12 05:03:22;;;;;;;;;9.00;7.00;;;;;7.82;43.65;100263.78;6223218;28;97458;-71
2022/02/12 05:06:25;;;;;;;;;10.00;8.00;;;;;7.69;43.65;100268.84;6230158;27;98763;-71
2022/02/12 05:09:31;;;;;;;;;6.80;6.00;;;;;7.68;43.66;100269.84;6259155;27;99804;-71
2022/02/12 05:12:35;;;;;;;;;8.00;8.00;;;;;7.65;43.80;100280.09;6226995;27;96635;-71
2022/02/12 05:15:39;;;;;;;;;7.00;6.00;;;;;7.58;43.86;100287.13;6241148;27;98123;-70
2022/02/12 05:18:42;;;;;;;;;9.40;7.80;;;;;7.55;43.76;100284.78;6239491;28;96560;-70
2022/02/12 05:21:45;;;;;;;;;8.00;7.00;;;;;7.55;43.97;100299.06;6251342;27;97574;-70
2022/02/12 05:24:50;;;;;;;;;8.00;8.00;;;;;7.61;43.81;100297.53;6245332;27;97340;-71
2022/02/12 05:27:55;;;;;;;;;8.00;7.00;;;;;7.60;44.18;100298.53;6250011;27;96494;-71
2022/02/12 05:30:58;;;;;;;;;8.20;7.80;;;;;7.62;44.19;100310.81;6241397;27;97021;-72
2022/02/12 05:34:01;;;;;;;;;8.00;7.00;;;;;7.63;44.04;100304.41;6253251;27;97766;-70
2022/02/12 05:37:05;;;;;;;;;8.25;8.25;;;;;7.63;43.85;100304.41;6219606;27;97582;-71
2022/02/12 05:40:09;;;;;;;;;7.00;6.00;;;;;7.60;43.77;100317.31;6264777;27;97574;-72
2022/02/12 05:43:14;;;;;;;;;7.60;7.00;;;;;7.58;43.48;100322.84;6244559;27;96818;-70
2022/02/12 05:46:17;;;;;;;;;6.00;6.00;;;;;7.54;43.10;100326.88;6220570;27;98475;-72
2022/02/12 05:49:22;;;;;;;;;8.00;7.00;;;;;7.61;43.16;100341.31;6233499;27;96702;-70
2022/02/12 05:52:25;;;;;;;;;6.60;6.00;;;;;7.61;43.18;100340.50;6239393;27;97850;-72
2022/02/12 05:55:28;;;;;;;;;7.40;7.00;;;;;7.57;43.31;100336.47;6241245;27;97976;-70
2022/02/12 05:58:33;;;;;;;;;8.00;8.00;;;;;7.53;43.10;100353.88;6238984;28;96800;-71
2022/02/12 06:01:36;;;;;;;;;9.00;8.40;;;;;7.46;43.35;100359.09;6271734;27;97409;-70
2022/02/12 06:04:40;;;;;;;;;6.00;6.00;;;;;7.43;43.37;100359.41;6265536;27;96507;-72
2022/02/12 06:07:43;;;;;;;;;8.00;8.00;;;;;7.45;43.30;100360.09;6261114;27;96969;-70
2022/02/12 06:10:46;;;;;;;;;6.80;6.20;;;;;7.50;43.35;100367.66;6242398;27;99929;-72
2022/02/12 06:13:52;;;;;;;;;7.00;7.00;;;;;7.50;43.43;100373.00;6227674;27;96748;-70
2022/02/12 06:16:58;;;;;;;;;7.00;6.60;;;;;7.50;43.44;100371.16;6244456;27;96524;-70
2022/02/12 06:20:02;;;;;;;;;8.50;7.50;;;;;7.53;43.28;100376.19;6233800;28;97966;-72
2022/02/12 06:23:05;;;;;;;;;8.00;7.80;;;;;7.72;43.30;100383.13;6237997;28;96854;-71
2022/02/12 06:26:09;;;;;;;;;10.00;9.00;;;;;7.58;42.68;100304.06;6239750;27;97628;-70
2022/02/12 06:29:14;;;;;;;;;9.00;8.00;;;;;8.38;41.23;100353.34;6220192;28;96510;-70
2022/02/12 06:32:17;;;;;;;;;6.60;6.00;;;;;9.15;40.53;100394.75;6239047;28;97768;-70
2022/02/12 06:35:21;;;;;;;;;7.80;7.00;;;;;9.82;39.37;100395.81;6239800;28;97449;-70
2022/02/12 06:38:24;;;;;;;;;7.50;7.00;;;;;10.98;37.34;100398.91;6218981;27;96759;-70
2022/02/12 06:41:28;;;;;;;;;7.60;7.60;;;;;12.49;34.85;100414.03;6251751;27;98266;-72
2022/02/12 06:44:32;;;;;;;;;9.25;8.25;;;;;14.25;31.89;100411.38;6269433;27;97185;-70
2022/02/12 06:47:37;;;;;;;;;7.60;7.00;;;;;15.89;29.61;100416.34;6259290;27;98547;-72
2022/02/12 06:50:40;;;;;;;;;9.00;8.00;;;;;17.27;27.63;100417.81;6224386;27;99543;-72
2022/02/12 06:53:44;;;;;;;;;9.00;8.00;;;;;18.52;26.11;100417.94;6240757;27;97519;-71
2022/02/12 06:56:47;;;;;;;;;8.00;8.00;;;;;19.60;25.05;100429.13;6230177;27;98357;-71
2022/02/12 06:59:52;;;;;;;;;8.00;7.50;;;;;20.35;23.41;100441.75;6255891;27;96894;-73
2022/02/12 07:02:55;;;;;;;;;9.00;8.40;;;;;18.89;24.73;100440.41;6255654;27;97448;-70
2022/02/12 07:05:59;;;;;;;;;10.00;8.00;;;;;18.50;25.09;100409.13;6232718;27;97054;-71
2022/02/12 07:09:04;;;;;;;;;10.00;10.00;;;;;18.30;25.21;100442.22;6238647;27;97999;-72
2022/02/12 07:12:09;;;;;;;;;8.00;8.00;;;;;19.83;23.91;100445.47;6249320;27;97507;-73
2022/02/12 07:15:13;;;;;;;;;9.20;9.00;;;;;21.21;22.08;100454.91;6245259;27;97515;-73
2022/02/12 07:18:17;;;;;;;;;12.00;10.00;;;;;22.32;20.78;100453.50;6237051;28;96727;-71
2022/02/12 07:21:20;;;;;;;;;11.00;9.00;;;;;23.17;20.05;100463.50;6221763;27;97552;-70
2022/02/12 07:24:23;;;;;;;;;7.00;7.00;;;;;23.94;19.19;100467.47;6246654;27;97078;-73
2022/02/12 07:27:27;;;;;;;;;9.00;9.00;;;;;24.59;18.65;100481.38;6224567;28;96753;-71
2022/02/12 07:30:31;;;;;;;;;10.00;9.00;;;;;25.23;18.13;100479.94;6237628;27;97565;-73
2022/02/12 07:33:34;;;;;;;;;11.00;9.00;;;;;25.62;17.71;100472.69;6223889;28;96971;-71
2022/02/12 07:36:37;;;;;;;;;11.00;9.50;;;;;26.18;16.92;100473.22;6254048;27;96604;-72
2022/02/12 07:39:41;;;;;;;;;9.40;9.00;;;;;26.54;16.75;100465.50;6233232;27;98005;-72
2022/02/12 07:42:45;;;;;;;;;10.00;10.00;;;;;26.82;16.18;100479.69;6251210;27;97535;-71
2022/02/12 07:45:50;;;;;;;;;8.60;8.00;;;;;25.92;16.87;100487.47;6239763;27;97492;-71
2022/02/12 07:48:53;;;;;;;;;8.00;8.00;;;;;24.97;17.52;100493.00;6245935;27;98133;-72
2022/02/12 07:51:56;;;;;;;;;10.00;9.00;;;;;23.54;18.67;100488.25;6262757;27;96761;-70
2022/02/12 07:55:00;;;;;;;;;9.40;9.00;;;;;23.26;19.27;100483.94;6266533;27;97515;-72
2022/02/12 07:58:03;;;;;;;;;8.20;7.20;;;;;24.40;18.15;100494.03;6261307;27;96701;-72
2022/02/12 08:01:08;;;;;;;;;9.00;9.00;;;;;25.55;17.47;100497.03;6236649;27;97217;-72
2022/02/12 08:04:11;;;;;;;;;8.00;8.00;;;;;26.28;16.83;100503.59;6257969;27;97578;-73
2022/02/12 08:07:30;;;;;;;;;8.00;8.00;;;;;27.04;15.97;100507.72;6253067;27;97506;-71
2022/02/12 08:13:54;;;;;;;;;8.60;8.00;;;;;27.94;15.35;100517.00;6248715;27;97472;-72
2022/02/12 08:16:58;;;;;;;;;8.00;7.00;;;;;28.93;14.69;100525.25;6234373;27;96822;-71
2022/02/12 08:20:01;;;;;;;;;9.00;9.00;;;;;27.70;14.81;100538.38;6255732;27;96508;-71
2022/02/12 08:23:05;;;;;;;;;8.50;8.50;;;;;25.21;16.44;100540.97;6240550;28;97556;-70
2022/02/12 08:26:08;;;;;;;;;7.00;6.00;;;;;23.58;17.29;100538.09;6240785;28;97176;-72
2022/02/12 08:29:11;;;;;;;;;8.00;7.75;;;;;21.72;19.13;100544.25;6244414;27;96600;-71
2022/02/12 08:32:16;;;;;;;;;9.00;9.00;;;;;21.66;19.93;100547.16;6267247;27;96529;-72
2022/02/12 08:35:19;;;;;;;;;9.00;7.75;;;;;20.61;20.78;100545.25;6223212;28;96425;-72
2022/02/12 08:38:23;;;;;;;;;8.00;8.00;;;;;19.29;22.51;100538.94;6240056;28;97028;-72
2022/02/12 08:41:26;;;;;;;;;9.00;8.50;;;;;19.27;22.27;100555.56;6224578;27;96612;-71
2022/02/12 08:44:29;;;;;;;;;7.00;7.00;;;;;20.37;21.45;100560.16;6234122;27;97830;-70
2022/02/12 08:47:34;;;;;;;;;8.00;8.00;;;;;22.15;19.70;100551.69;6252713;27;96541;-70
2022/02/12 08:50:38;;;;;;;;;6.60;6.60;;;;;23.84;18.30;100566.59;6231555;27;97914;-73
2022/02/12 08:53:42;;;;;;;;;8.00;7.00;;;;;23.67;17.71;100561.28;6245367;27;99565;-73
2022/02/12 08:56:46;;;;;;;;;6.00;6.00;;;;;22.23;18.69;100559.47;6248019;27;97473;-72
2022/02/12 08:59:49;;;;;;;;;6.00;5.60;;;;;22.16;18.35;100572.56;6229768;28;97034;-72
2022/02/12 09:02:54;;;;;;;;;7.00;7.00;;;;;23.09;17.87;100568.56;6222559;28;97102;-71
2022/02/12 09:05:59;;;;;;;;;9.40;7.80;;;;;24.31;17.19;100580.31;6216040;28;96661;-70
2022/02/12 09:09:02;;;;;;;;;9.50;8.00;;;;;25.28;16.36;100574.63;6216993;28;96955;-70
2022/02/12 09:12:06;;;;;;;;;7.60;6.60;;;;;26.05;15.72;100581.63;6218492;28;97188;-70
2022/02/12 09:15:10;;;;;;;;;6.00;6.00;;;;;26.52;14.42;100581.16;6215505;27;98124;-70
2022/02/12 09:18:15;;;;;;;;;7.00;6.75;;;;;27.24;14.56;100584.25;6215071;28;96766;-70
2022/02/12 09:21:18;;;;;;;;;6.00;6.00;;;;;27.65;14.40;100579.16;6235472;27;97103;-73
2022/02/12 09:24:22;;;;;;;;;6.00;6.00;;;;;27.83;13.87;100590.31;6233826;27;97569;-73
2022/02/12 09:27:25;;;;;;;;;6.40;6.00;;;;;27.70;13.86;100588.25;6236403;27;96700;-70
2022/02/12 09:30:28;;;;;;;;;6.75;6.75;;;;;28.03;13.43;100600.34;6243013;27;96576;-71
2022/02/12 09:33:33;;;;;;;;;6.25;5.00;;;;;27.90;14.48;100610.19;6220484;28;97851;-71
2022/02/12 09:36:37;;;;;;;;;7.00;6.75;;;;;26.34;14.48;100609.47;6235742;28;98410;-72
2022/02/12 09:39:42;;;;;;;;;6.40;6.00;;;;;25.58;15.22;100618.00;6237823;28;96566;-71
2022/02/12 09:42:47;;;;;;;;;5.25;5.00;;;;;24.16;15.64;100614.13;6235020;28;97515;-71
2022/02/12 09:46:04;;;;;;;;;5.00;5.00;;;;;23.28;15.81;100583.56;6236411;28;96580;-69
2022/02/12 09:49:09;;;;;;;;;5.40;5.40;;;;;24.09;15.35;100606.09;6238504;28;97065;-72
2022/02/12 09:52:17;;;;;;;;;7.00;7.00;;;;;23.96;16.98;100609.34;6229452;28;99991;-73
2022/02/12 09:55:22;;;;;;;;;6.00;6.00;;;;;24.67;16.34;100604.13;6226588;28;97816;-71
2022/02/12 09:58:26;;;;;;;;;8.50;8.00;;;;;25.39;16.13;100600.31;6206946;28;96956;-73
2022/02/12 10:01:29;;;;;;;;;4.00;4.00;;;;;25.60;14.84;100601.97;6223048;28;96495;-72
2022/02/12 10:04:34;;;;;;;;;5.00;5.00;;;;;26.07;14.46;100596.03;6216385;28;97099;-74
2022/02/12 10:07:39;;;;;;;;;5.00;5.00;;;;;26.40;13.90;100596.44;6213039;28;97451;-71
2022/02/12 10:10:45;;;;;;;;;4.00;4.00;;;;;26.57;13.56;100603.28;6215842;28;97541;-72
2022/02/12 10:13:48;;;;;;;;;5.50;5.50;;;;;27.05;13.64;100600.75;6219915;28;98135;-72
2022/02/12 10:16:57;;;;;;;;;4.33;4.33;;;;;27.57;13.16;100606.38;6215169;28;98478;-70
2022/02/12 10:20:02;;;;;;;;;4.60;4.00;;;;;27.68;12.38;100598.78;6211817;28;97794;-71
2022/02/12 10:23:11;;;;;;;;;4.00;4.00;;;;;26.98;11.81;100487.56;6214863;28;97569;-71
2022/02/12 10:26:14;;;;;;;;;4.00;4.00;;;;;27.18;11.28;100539.16;6214711;28;96682;-72
2022/02/12 10:29:19;;;;;;;;;5.00;5.00;;;;;27.16;11.96;100599.56;6196291;28;97811;-73
2022/02/12 10:32:24;;;;;;;;;4.00;4.00;;;;;27.04;13.17;100593.53;6212117;28;96750;-72
2022/02/12 10:35:30;;;;;;;;;6.00;6.00;;;;;27.31;12.74;100588.34;6214095;28;100082;-71
2022/02/12 10:38:34;;;;;;;;;7.00;6.00;;;;;27.68;12.40;100592.41;6213056;28;96628;-73
2022/02/12 10:41:38;;;;;;;;;5.00;5.00;;;;;27.86;11.77;100592.47;6214029;28;97415;-72
2022/02/12 10:44:41;;;;;;;;;5.00;5.00;;;;;26.27;12.44;100595.13;6196142;28;97103;-72
2022/02/12 10:47:45;;;;;;;;;5.00;5.00;;;;;25.05;13.02;100546.78;6215362;28;96598;-73
2022/02/12 10:51:00;;;;;;;;;5.00;5.00;;;;;23.65;13.88;100586.31;6214176;28;96368;-71
2022/02/12 10:54:05;;;;;;;;;6.00;5.00;;;;;22.23;15.21;100586.97;6231076;28;97570;-73
2022/02/12 10:57:09;;;;;;;;;4.20;4.20;;;;;21.53;15.69;100578.56;6240058;28;97430;-72
2022/02/12 11:00:17;;;;;;;;;5.00;5.00;;;;;21.25;15.90;100579.53;6234866;28;97145;-72
2022/02/12 11:03:20;;;;;;;;;6.00;5.00;;;;;20.65;16.98;100571.09;6240977;28;96458;-72
2022/02/12 11:06:25;;;;;;;;;5.40;5.00;;;;;21.38;16.86;100573.69;6223006;28;96625;-73
2022/02/12 11:09:31;;;;;;;;;4.00;3.40;;;;;22.09;14.98;100579.38;6238496;28;96532;-73
2022/02/12 11:12:37;;;;;;;;;5.40;4.40;;;;;22.58;14.77;100566.44;6239527;28;97227;-71
2022/02/12 11:15:40;;;;;;;;;4.20;4.00;;;;;23.13;14.53;100566.13;6236245;27;97453;-72
2022/02/12 11:18:45;;;;;;;;;6.60;4.60;;;;;23.50;13.36;100560.63;6239019;27;96660;-73
2022/02/12 11:21:50;;;;;;;;;5.00;4.00;;;;;23.54;13.83;100534.22;6235417;28;99826;-74
2022/02/12 11:24:54;;;;;;;;;5.80;5.00;;;;;23.86;14.31;100526.66;6228884;28;97166;-73
2022/02/12 11:28:05;;;;;;;;;5.00;5.00;;;;;24.38;14.07;100550.56;6240476;28;98218;-72
2022/02/12 11:31:25;;;;;;;;;6.00;5.00;;;;;24.86;13.90;100546.50;6237221;28;97512;-73
2022/02/12 11:34:28;;;;;;;;;5.20;5.00;;;;;24.94;14.18;100532.16;6230846;28;98483;-71
2022/02/12 11:37:36;;;;;;;;;7.00;6.00;;;;;25.43;14.06;100555.28;6212603;28;97206;-73
2022/02/12 11:40:39;;;;;;;;;6.00;6.00;;;;;25.56;13.59;100553.09;6220937;28;96568;-71
2022/02/12 11:43:46;;;;;;;;;7.00;7.00;;;;;25.02;13.28;100548.19;6230931;27;97747;-71
2022/02/12 11:47:05;;;;;;;;;7.00;6.50;;;;;24.49;14.06;100554.97;6221513;28;97424;-72
2022/02/12 11:50:15;;;;;;;;;5.00;5.00;;;;;23.83;13.98;100548.41;6220644;28;99545;-72
2022/02/12 11:53:49;;;;;;;;;5.00;5.00;;;;;24.09;14.04;100544.66;6214075;28;99671;-73
2022/02/12 11:56:53;;;;;;;;;8.00;7.00;;;;;24.40;14.08;100549.19;6231529;28;97333;-71
2022/02/12 12:00:39;;;;;;;;;7.40;7.00;;;;;24.67;12.97;100551.72;6237673;27;97644;-71
2022/02/12 12:04:01;;;;;;;;;4.60;4.60;;;;;24.88;12.88;100541.53;6236930;27;98746;-72
2022/02/12 12:07:08;;;;;;;;;5.00;5.00;;;;;25.30;12.82;100544.84;6237041;27;98428;-71
2022/02/12 12:10:13;;;;;;;;;5.80;4.80;;;;;25.45;12.64;100547.56;6257702;27;97579;-72
2022/02/12 12:13:38;;;;;;;;;6.40;5.00;;;;;25.13;12.50;100540.69;6234610;27;97844;-72
2022/02/12 12:16:53;;;;;;;;;5.00;4.00;;;;;24.90;12.27;100540.16;6256537;27;96530;-73
2022/02/12 12:19:59;;;;;;;;;4.60;4.00;;;;;24.71;12.22;100533.50;6229660;27;96596;-72
2022/02/12 12:23:03;;;;;;;;;5.00;5.00;;;;;24.62;11.93;100521.38;6237727;27;97211;-71
2022/02/12 12:26:08;;;;;;;;;3.00;3.00;;;;;24.74;11.66;100510.88;6259251;27;96714;-72
2022/02/12 12:32:35;;;;;;;;;8.00;7.00;;;;;24.87;11.56;100509.56;6240681;27;97083;-72
2022/02/12 12:35:39;;;;;;;;;5.00;4.60;;;;;24.75;12.19;100500.69;6217181;27;98280;-73
2022/02/12 12:38:45;;;;;;;;;6.00;6.00;;;;;24.50;12.28;100498.75;6251021;27;97422;-73
2022/02/12 12:41:54;;;;;;;;;5.00;4.00;;;;;23.98;11.97;100501.63;6240318;27;96706;-73
2022/02/12 12:45:03;;;;;;;;;6.40;5.80;;;;;23.31;12.72;100494.97;6245017;27;97988;-71
2022/02/12 12:48:08;;;;;;;;;5.40;5.00;;;;;22.71;12.75;100486.31;6243323;27;96920;-73
2022/02/12 12:51:17;;;;;;;;;6.67;6.00;;;;;22.57;13.43;100479.56;6246846;27;97259;-73
2022/02/12 12:54:31;;;;;;;;;3.00;3.00;;;;;22.40;12.77;100476.91;6264498;27;97520;-72
2022/02/12 12:57:41;;;;;;;;;5.00;5.00;;;;;22.29;12.80;100472.41;6258441;27;97102;-71
2022/02/12 13:00:45;;;;;;;;;4.50;4.00;;;;;21.87;12.98;100434.63;6254572;27;97471;-71
2022/02/12 13:03:48;;;;;;;;;5.00;4.00;;;;;21.99;12.00;100461.97;6241137;27;96912;-73
2022/02/12 13:06:53;;;;;;;;;5.00;5.00;;;;;21.72;12.97;100452.81;6256158;27;98115;-72
2022/02/12 13:09:58;;;;;;;;;6.00;4.00;;;;;21.52;12.67;100443.25;6232453;27;98602;-73
2022/02/12 13:13:14;;;;;;;;;6.00;5.00;;;;;21.29;13.09;100450.91;6242245;27;97346;-73
2022/02/12 13:16:18;;;;;;;;;5.00;4.20;;;;;20.87;13.33;100447.78;6218702;27;97203;-73
2022/02/12 13:19:21;;;;;;;;;4.00;3.60;;;;;20.79;12.87;100460.03;6244896;27;97494;-73
2022/02/12 13:22:27;;;;;;;;;4.00;3.40;;;;;20.65;12.84;100456.81;6237709;27;100100;-71
2022/02/12 13:25:32;;;;;;;;;4.00;4.00;;;;;20.22;13.26;100448.38;6246272;27;96643;-73
2022/02/12 13:28:37;;;;;;;;;5.50;5.50;;;;;20.03;13.71;100452.41;6249353;27;96563;-73
2022/02/12 13:31:43;;;;;;;;;4.00;4.00;;;;;20.13;14.29;100450.69;6237685;27;96682;-72
2022/02/12 13:34:50;;;;;;;;;4.40;4.00;;;;;20.24;13.33;100449.78;6262076;27;97133;-73
2022/02/12 13:37:55;;;;;;;;;4.00;3.00;;;;;20.19;13.22;100446.94;6247156;27;97225;-71
2022/02/12 13:40:59;;;;;;;;;4.00;4.00;;;;;19.98;13.50;100452.31;6253939;27;97738;-71
2022/02/12 13:44:03;;;;;;;;;4.00;3.40;;;;;19.89;14.12;100441.72;6204271;28;97349;-72
2022/02/12 13:47:08;;;;;;;;;3.25;3.25;;;;;19.85;14.00;100456.16;6241236;27;97628;-71
2022/02/12 13:50:21;;;;;;;;;6.00;4.00;;;;;19.71;14.47;100449.31;6225765;28;99599;-71
2022/02/12 13:53:26;;;;;;;;;4.00;3.00;;;;;19.51;14.54;100441.53;6245697;27;97981;-70
2022/02/12 13:56:38;;;;;;;;;5.00;4.20;;;;;19.30;15.87;100440.22;6253191;27;98263;-71
2022/02/12 13:59:45;;;;;;;;;5.00;4.80;;;;;19.30;15.23;100450.34;6238508;27;97510;-71
2022/02/12 14:02:53;;;;;;;;;4.80;4.40;;;;;18.73;15.44;100443.84;6246705;27;97943;-73
2022/02/12 14:05:57;;;;;;;;;6.40;6.40;;;;;18.26;15.87;100442.94;6246814;27;97500;-72
2022/02/12 14:09:00;;;;;;;;;4.00;4.00;;;;;18.09;16.53;100438.13;6246881;27;97752;-72
2022/02/12 14:12:05;;;;;;;;;6.00;5.00;;;;;17.91;16.56;100440.09;6239479;27;96780;-71
2022/02/12 14:15:11;;;;;;;;;8.00;8.00;;;;;17.78;16.92;100435.66;6229937;27;96746;-73
2022/02/12 14:18:15;;;;;;;;;8.00;6.00;;;;;17.59;16.47;100428.59;6260424;27;97494;-72
2022/02/12 14:21:19;;;;;;;;;6.25;5.25;;;;;17.58;16.61;100432.34;6256938;27;96737;-71
2022/02/12 14:24:22;;;;;;;;;6.00;6.00;;;;;17.26;17.14;100409.88;6219777;27;98530;-72
2022/02/12 14:27:25;;;;;;;;;6.60;6.60;;;;;17.09;16.97;100431.47;6252193;27;98126;-70
2022/02/12 14:30:30;;;;;;;;;5.00;5.00;;;;;17.00;17.59;100445.63;6261787;27;96756;-72
2022/02/12 14:33:34;;;;;;;;;6.60;5.60;;;;;16.88;17.51;100437.34;6236339;27;97344;-72